Decoded Metar for KSDY (SIDNEY RICHLAND in MT, USA) (IATA:SDY) | Meteo·Mobile Aviation Weather
aviador You're here:

KSDY Decoded Metar

SIDNEY RICHLAND in MT, USA
Report Time2019-01-21 15:56:00
UTC Time2019-01-21 16:08:50
Flight Rules mvfr MVFR
Wind060° at 06 kt
W.Decomp.*RWY 01: 4.5 kt HW 3.9 kt RCW
RWY 11: 3.1 kt HW 5.1 kt LCW
W.Rank060° ranks 31
Current wind is below 060° avg. (6.7)
Visibility9999 m
Phenomena:N/A
Clouds:Overcast 018 Hf
Expected CloudBase > 1,200 ft AGL from Temp-Dew spread
Ceiling1,800 ft
Temp-9°C (ISA -20)
Dew Point-12°C (79% RH)
AAT-14.4°C
QNH1009 hPa
Density Alt-325 ft
Elevation1,985 ft
Report Wrong Elevation
Raw Report
KSDY 211556Z AUTO 06006KT 10SM OVC018 M09/M12 A2980 RMK AO2 SLP133
T10891117 FZRANO=

Extra information for KSDY:More info

Metar Taf Metar & Taf Last 4 Metars F.Rules Stats Wind Profile Meteogram Temp Stats Airport Information Weather charts Add Link Nearby VenuesMetar ALERT Operation Metar Decoded Social comments

AIRNAV info for KSDY